createdAt,value
2023-05-03T00:01:50.192Z,17.00
2023-05-03T00:05:17.830Z,19.50
2023-05-03T00:08:45.605Z,14.20
2023-05-03T00:12:12.665Z,18.50
2023-05-03T00:15:39.427Z,20.40
2023-05-03T00:19:07.789Z,12.90
2023-05-03T00:22:37.945Z,14.00
2023-05-03T00:26:04.831Z,16.80
2023-05-03T00:29:31.715Z,16.60
2023-05-03T00:32:59.011Z,13.30
2023-05-03T00:36:28.171Z,14.80
2023-05-03T00:39:55.445Z,14.50
2023-05-03T00:43:22.406Z,19.80
2023-05-03T00:46:49.687Z,15.20
2023-05-03T00:50:17.120Z,14.50
2023-05-03T00:53:44.212Z,14.80
2023-05-03T00:57:11.978Z,19.10
2023-05-03T01:00:38.988Z,14.00
2023-05-03T01:04:07.585Z,16.70
2023-05-03T01:07:43.752Z,13.50
2023-05-03T01:11:21.329Z,13.80
2023-05-03T01:15:00.854Z,11.80
2023-05-03T01:18:35.547Z,12.80
2023-05-03T01:22:23.583Z,14.50
2023-05-03T01:25:51.975Z,15.30
2023-05-03T01:29:19.313Z,15.00
2023-05-03T01:32:57.865Z,15.00
2023-05-03T01:36:32.581Z,19.40
2023-05-03T01:40:04.064Z,13.00
2023-05-03T01:43:32.890Z,15.70
2023-05-03T01:47:00.138Z,12.40
2023-05-03T01:50:26.930Z,14.50
2023-05-03T01:53:54.005Z,19.40
2023-05-03T01:57:20.912Z,15.00
2023-05-03T02:00:49.379Z,15.70
2023-05-03T02:04:16.461Z,12.90
2023-05-03T02:07:43.356Z,17.50
2023-05-03T02:11:10.425Z,12.50
2023-05-03T02:14:37.705Z,12.80
2023-05-03T02:18:05.519Z,19.10
2023-05-03T02:21:32.719Z,17.20
2023-05-03T02:25:00.047Z,13.60
2023-05-03T02:28:27.100Z,19.50
2023-05-03T02:31:54.124Z,13.20
2023-05-03T02:35:21.309Z,11.60
2023-05-03T02:38:48.761Z,14.70
2023-05-03T02:42:16.241Z,15.80
2023-05-03T02:45:45.610Z,13.40
2023-05-03T02:49:13.476Z,19.70
2023-05-03T02:52:40.491Z,11.60
2023-05-03T02:56:09.817Z,15.80
2023-05-03T02:59:36.893Z,15.50
2023-05-03T03:03:04.342Z,15.80
2023-05-03T03:06:31.485Z,16.20
2023-05-03T03:09:59.046Z,13.00
2023-05-03T03:13:26.242Z,13.30
2023-05-03T03:16:54.118Z,14.30
2023-05-03T03:20:21.212Z,12.40
2023-05-03T03:23:48.389Z,18.50
2023-05-03T03:27:15.629Z,12.20
2023-05-03T03:30:42.578Z,20.80
2023-05-03T03:34:16.428Z,23.70
2023-05-03T03:37:43.430Z,20.60
2023-05-03T03:41:10.862Z,18.70
2023-05-03T03:44:38.393Z,23.10
2023-05-03T03:48:06.285Z,30.40
2023-05-03T03:51:33.414Z,38.90
2023-05-03T03:55:01.164Z,36.70
2023-05-03T03:58:28.450Z,39.10
2023-05-03T04:01:55.883Z,34.80
2023-05-03T04:05:23.880Z,43.20
2023-05-03T04:08:51.147Z,46.20
2023-05-03T04:12:18.958Z,46.80
2023-05-03T04:15:46.724Z,30.70
2023-05-03T04:19:14.612Z,25.10
2023-05-03T04:22:42.316Z,15.30
2023-05-03T04:26:23.519Z,16.20
2023-05-03T04:29:59.936Z,17.60
2023-05-03T04:33:30.004Z,20.20
2023-05-03T04:37:01.630Z,15.90
2023-05-03T04:40:28.617Z,20.10
2023-05-03T04:44:01.597Z,15.90
2023-05-03T04:47:28.664Z,15.70
2023-05-03T04:50:55.878Z,19.30
2023-05-03T04:54:23.761Z,16.30
2023-05-03T04:57:50.800Z,10.00
2023-05-03T05:01:18.215Z,14.30
2023-05-03T05:04:46.493Z,10.40
2023-05-03T05:08:13.907Z,16.70
2023-05-03T05:11:49.150Z,16.90
2023-05-03T05:15:16.703Z,13.90
2023-05-03T05:18:44.623Z,15.90
2023-05-03T05:22:11.937Z,9.80
2023-05-03T05:25:43.867Z,10.10
2023-05-03T05:29:11.035Z,12.80
2023-05-03T05:32:38.095Z,14.30
2023-05-03T05:36:08.529Z,14.00
2023-05-03T05:39:35.815Z,10.60
2023-05-03T05:43:03.299Z,9.40
2023-05-03T05:46:31.286Z,14.30
2023-05-03T05:49:59.419Z,21.60
2023-05-03T05:53:27.429Z,12.40
2023-05-03T05:56:58.698Z,11.90
2023-05-03T06:00:27.106Z,9.90
2023-05-03T06:03:55.601Z,10.00
2023-05-03T06:07:25.093Z,15.80
2023-05-03T06:10:53.286Z,10.30
2023-05-03T06:14:20.947Z,11.40
2023-05-03T06:17:48.547Z,10.80
2023-05-03T06:21:15.805Z,10.10
2023-05-03T06:24:42.602Z,11.70
2023-05-03T06:28:09.412Z,14.20
2023-05-03T06:31:37.033Z,13.70
2023-05-03T06:35:05.585Z,10.40
2023-05-03T06:38:33.196Z,12.10
2023-05-03T06:42:00.218Z,11.70
2023-05-03T06:45:34.465Z,11.40
2023-05-03T06:49:01.966Z,12.40
2023-05-03T06:52:29.250Z,12.10
2023-05-03T06:55:56.148Z,10.50
2023-05-03T06:59:23.192Z,11.30
2023-05-03T07:02:50.385Z,9.60
2023-05-03T07:06:18.476Z,10.20
2023-05-03T07:09:45.386Z,9.50
2023-05-03T07:13:12.403Z,7.10
2023-05-03T07:16:39.622Z,13.70
2023-05-03T07:20:08.424Z,7.30
2023-05-03T07:23:35.283Z,7.30
2023-05-03T07:27:02.300Z,7.20
2023-05-03T07:30:29.574Z,4.10
2023-05-03T07:33:57.125Z,10.30
2023-05-03T07:37:28.172Z,7.40
2023-05-03T07:40:56.300Z,7.50
2023-05-03T07:44:25.355Z,5.20
2023-05-03T07:47:54.188Z,5.60
2023-05-03T07:51:22.132Z,4.80
2023-05-03T07:54:49.608Z,6.30
2023-05-03T07:58:21.218Z,9.40
2023-05-03T08:01:54.087Z,6.30
2023-05-03T08:05:23.484Z,4.80
2023-05-03T08:08:51.702Z,10.40
2023-05-03T08:12:19.204Z,5.80
2023-05-03T08:15:50.776Z,6.20
2023-05-03T08:19:18.653Z,11.70
2023-05-03T08:22:48.042Z,6.00
2023-05-03T08:26:16.476Z,5.90
2023-05-03T08:29:44.901Z,10.40
2023-05-03T08:33:12.259Z,4.30
2023-05-03T08:36:41.037Z,6.40
2023-05-03T08:40:14.734Z,6.50
2023-05-03T08:43:53.442Z,7.50
2023-05-03T08:47:22.202Z,4.60
2023-05-03T08:50:51.752Z,7.80
2023-05-03T08:54:20.797Z,6.00
2023-05-03T08:57:50.163Z,7.80
2023-05-03T09:01:17.669Z,7.60
2023-05-03T09:04:47.538Z,4.90
2023-05-03T09:11:43.077Z,6.10
2023-05-03T09:15:22.756Z,6.70
2023-05-03T09:19:01.275Z,6.50
2023-05-03T09:22:32.840Z,5.80
2023-05-03T09:26:01.322Z,8.40
2023-05-03T09:29:34.206Z,6.60
2023-05-03T09:33:01.292Z,4.50
2023-05-03T09:36:30.280Z,5.40
2023-05-03T09:40:10.525Z,9.50
2023-05-03T09:43:50.684Z,5.50
2023-05-03T09:47:19.854Z,37.60
2023-05-03T09:50:47.068Z,5.60
2023-05-03T09:54:17.042Z,10.10
2023-05-03T09:57:48.110Z,5.50
2023-05-03T10:01:18.009Z,7.00
2023-05-03T10:04:53.294Z,5.90
2023-05-03T10:08:27.983Z,6.80
2023-05-03T10:11:58.955Z,6.50
2023-05-03T10:15:28.708Z,5.10
2023-05-03T10:19:01.569Z,4.80
2023-05-03T10:22:28.737Z,4.70
2023-05-03T10:26:17.537Z,5.60
2023-05-03T10:29:58.134Z,5.80
2023-05-03T10:33:36.228Z,8.20
2023-05-03T10:37:09.739Z,4.50
2023-05-03T10:40:46.434Z,5.80
2023-05-03T10:44:28.353Z,5.90
2023-05-03T10:48:23.711Z,5.60
2023-05-03T10:51:52.013Z,7.30
2023-05-03T10:55:25.168Z,5.70
2023-05-03T10:58:56.423Z,6.20
2023-05-03T11:02:33.463Z,7.50
2023-05-03T11:06:00.578Z,6.10
2023-05-03T11:09:35.171Z,10.10
2023-05-03T11:13:02.233Z,8.40
2023-05-03T11:16:29.737Z,5.70
2023-05-03T11:19:56.607Z,6.80
2023-05-03T11:23:28.967Z,15.00
2023-05-03T11:26:55.981Z,4.60
2023-05-03T11:30:22.971Z,7.40
2023-05-03T11:33:50.364Z,9.50
2023-05-03T11:37:18.943Z,7.70
2023-05-03T11:40:46.218Z,4.70
2023-05-03T11:44:17.492Z,6.60
2023-05-03T11:47:45.078Z,7.40
2023-05-03T11:51:14.033Z,4.90
2023-05-03T11:54:41.445Z,4.20
2023-05-03T11:58:13.698Z,5.20
2023-05-03T12:01:40.779Z,5.60
2023-05-03T12:05:10.366Z,13.30
2023-05-03T12:08:41.164Z,6.20
2023-05-03T12:12:11.244Z,10.80
2023-05-03T12:15:43.799Z,15.70
2023-05-03T12:22:37.197Z,5.90
2023-05-03T12:26:05.431Z,3.50
2023-05-03T12:29:35.192Z,7.10
2023-05-03T12:33:04.874Z,2.70
2023-05-03T12:36:36.896Z,4.70
2023-05-03T12:43:38.483Z,4.40
2023-05-03T12:47:09.557Z,8.10
2023-05-03T12:50:38.548Z,5.30
2023-05-03T12:54:10.215Z,6.60
2023-05-03T12:57:38.170Z,7.00
2023-05-03T13:01:37.233Z,7.40
2023-05-03T13:04:58.798Z,5.30
2023-05-03T13:08:33.835Z,5.80
2023-05-03T13:12:02.425Z,4.20
2023-05-03T13:15:29.861Z,3.90
2023-05-03T13:18:56.868Z,5.70
2023-05-03T13:22:24.124Z,6.80
2023-05-03T13:25:54.240Z,7.10
2023-05-03T13:29:22.212Z,4.80
2023-05-03T13:32:49.365Z,5.20
2023-05-03T13:36:16.749Z,4.10
2023-05-03T13:39:43.699Z,6.40
2023-05-03T13:43:11.388Z,5.80
2023-05-03T13:46:40.816Z,10.20
2023-05-03T13:50:10.012Z,4.80
2023-05-03T13:53:36.862Z,8.70
2023-05-03T13:57:04.164Z,5.40
2023-05-03T14:00:32.369Z,5.40
2023-05-03T14:03:59.890Z,4.70
2023-05-03T14:07:26.824Z,4.70
2023-05-03T14:10:54.221Z,2.20
2023-05-03T14:14:21.190Z,3.50
2023-05-03T14:17:50.946Z,4.80
2023-05-03T14:21:18.675Z,6.30
2023-05-03T14:24:45.719Z,6.60
2023-05-03T14:28:12.600Z,5.80
2023-05-03T14:31:39.703Z,11.20
2023-05-03T14:35:07.593Z,15.50
2023-05-03T14:38:34.699Z,6.90
2023-05-03T14:42:03.284Z,8.10
2023-05-03T14:45:30.361Z,7.10
2023-05-03T14:48:57.323Z,6.90
2023-05-03T14:52:24.833Z,4.60
2023-05-03T14:55:53.813Z,5.90
2023-05-03T14:59:21.100Z,3.40
2023-05-03T15:02:48.692Z,5.50
2023-05-03T15:06:16.773Z,3.60
2023-05-03T15:09:44.878Z,6.00
2023-05-03T15:13:12.043Z,6.20
2023-05-03T15:16:39.378Z,4.10
2023-05-03T15:20:09.838Z,5.50
2023-05-03T15:23:36.889Z,3.40
2023-05-03T15:27:04.704Z,3.10
2023-05-03T15:30:31.748Z,4.80
2023-05-03T15:34:00.028Z,4.20
2023-05-03T15:37:37.557Z,5.10
2023-05-03T15:41:04.813Z,8.10
2023-05-03T15:44:31.997Z,8.00
2023-05-03T15:47:59.011Z,7.50
2023-05-03T15:51:28.009Z,6.80
2023-05-03T15:54:56.238Z,6.40
2023-05-03T15:58:23.114Z,2.70
2023-05-03T16:01:51.193Z,7.10
2023-05-03T16:05:18.918Z,6.00
2023-05-03T16:08:46.037Z,7.20
2023-05-03T16:12:12.823Z,5.60
2023-05-03T16:15:39.828Z,5.10
2023-05-03T16:19:08.803Z,4.30
2023-05-03T16:22:37.194Z,5.40
2023-05-03T16:26:14.694Z,7.50
2023-05-03T16:29:41.727Z,5.90
2023-05-03T16:33:08.762Z,5.20
2023-05-03T16:36:42.463Z,9.00
2023-05-03T16:40:11.693Z,7.10
2023-05-03T16:43:39.620Z,9.80
2023-05-03T16:47:07.318Z,9.90
2023-05-03T16:50:34.462Z,5.60
2023-05-03T16:54:04.313Z,5.30
2023-05-03T16:57:32.830Z,5.90
2023-05-03T17:01:00.270Z,5.50
2023-05-03T17:04:28.289Z,7.90
2023-05-03T17:07:55.382Z,3.70
2023-05-03T17:11:23.738Z,5.60
2023-05-03T17:14:51.819Z,11.20
2023-05-03T17:18:19.388Z,12.80
2023-05-03T17:21:47.905Z,9.00
2023-05-03T17:25:15.501Z,6.30
2023-05-03T17:28:44.593Z,8.60
2023-05-03T17:32:11.601Z,6.70
2023-05-03T17:35:38.597Z,4.80
2023-05-03T17:39:06.235Z,12.80
2023-05-03T17:42:34.198Z,23.00
2023-05-03T17:46:11.025Z,27.10
2023-05-03T17:49:39.287Z,37.30
2023-05-03T17:53:07.180Z,33.80
2023-05-03T17:56:34.366Z,20.70
2023-05-03T18:00:02.890Z,18.80
2023-05-03T18:03:34.071Z,12.80
2023-05-03T18:07:01.553Z,11.80
2023-05-03T18:10:29.501Z,9.90
2023-05-03T18:13:57.552Z,8.00
2023-05-03T18:17:26.419Z,10.20
2023-05-03T18:21:01.654Z,14.40
2023-05-03T18:24:29.609Z,12.70
2023-05-03T18:27:58.204Z,18.30
2023-05-03T18:31:25.822Z,15.70
2023-05-03T18:34:53.218Z,15.70
2023-05-03T18:38:21.930Z,20.70
2023-05-03T18:41:50.135Z,22.80
2023-05-03T18:45:19.583Z,25.70
2023-05-03T18:48:47.667Z,24.40
2023-05-03T18:52:14.975Z,23.60
2023-05-03T18:55:43.075Z,24.20
2023-05-03T18:59:11.199Z,28.30
2023-05-03T19:02:38.272Z,34.70
2023-05-03T19:06:07.515Z,27.40
2023-05-03T19:09:40.317Z,20.60
2023-05-03T19:13:07.876Z,16.90
2023-05-03T19:16:40.893Z,23.40
2023-05-03T19:20:12.041Z,21.40
2023-05-03T19:23:39.921Z,15.10
2023-05-03T19:27:07.336Z,16.80
2023-05-03T19:30:34.577Z,11.70
2023-05-03T19:34:01.443Z,11.10
2023-05-03T19:37:28.147Z,11.00
2023-05-03T19:41:05.978Z,15.10
2023-05-03T19:44:33.516Z,23.60
2023-05-03T19:48:00.598Z,58.90
2023-05-03T19:51:27.984Z,44.20
2023-05-03T19:54:56.362Z,41.00
2023-05-03T19:58:23.331Z,34.10
2023-05-03T20:01:50.481Z,33.30
2023-05-03T20:05:17.837Z,43.10
2023-05-03T20:08:44.785Z,31.30
2023-05-03T20:12:13.370Z,35.00
2023-05-03T20:15:40.221Z,46.90
2023-05-03T20:19:07.079Z,40.30
2023-05-03T20:22:33.822Z,45.40
2023-05-03T20:26:01.480Z,38.50
2023-05-03T20:29:28.418Z,32.80
2023-05-03T20:32:55.368Z,45.10
2023-05-03T20:36:22.644Z,41.80
2023-05-03T20:39:49.558Z,44.00
2023-05-03T20:43:17.471Z,52.60
2023-05-03T20:46:45.518Z,40.40
2023-05-03T20:50:13.299Z,49.60
2023-05-03T20:53:40.625Z,41.90
2023-05-03T20:57:08.714Z,30.70
2023-05-03T21:00:35.729Z,27.20
2023-05-03T21:04:04.103Z,29.50
2023-05-03T21:07:31.278Z,23.60
2023-05-03T21:10:58.330Z,21.70
2023-05-03T21:14:25.286Z,21.40
2023-05-03T21:17:52.270Z,25.00
2023-05-03T21:21:19.471Z,23.20
2023-05-03T21:24:46.867Z,57.70
2023-05-03T21:28:13.986Z,43.50
2023-05-03T21:31:40.909Z,43.60
2023-05-03T21:35:10.309Z,43.90
2023-05-03T21:38:37.347Z,40.20
2023-05-03T21:42:07.685Z,42.40
2023-05-03T21:45:34.550Z,44.80
2023-05-03T21:49:01.408Z,30.10
2023-05-03T21:52:28.239Z,25.70
2023-05-03T21:55:57.948Z,29.60
2023-05-03T21:59:24.752Z,25.10
2023-05-03T22:02:51.979Z,36.50
2023-05-03T22:06:19.180Z,33.70
2023-05-03T22:09:48.841Z,30.70
2023-05-03T22:13:16.041Z,62.70
2023-05-03T22:16:43.355Z,180.60
2023-05-03T22:20:12.471Z,119.90
2023-05-03T22:23:39.513Z,117.20
2023-05-03T22:27:06.594Z,92.30
2023-05-03T22:30:33.559Z,97.60
2023-05-03T22:34:00.727Z,103.80
2023-05-03T22:37:27.870Z,117.40
2023-05-03T22:40:54.620Z,124.50
2023-05-03T22:44:21.648Z,73.00
2023-05-03T22:47:48.744Z,61.80
2023-05-03T22:51:15.729Z,64.50
2023-05-03T22:54:42.742Z,53.60
2023-05-03T22:58:09.622Z,47.80
2023-05-03T23:01:37.704Z,45.50
2023-05-03T23:05:04.854Z,52.40
2023-05-03T23:08:32.168Z,46.90
2023-05-03T23:12:00.563Z,52.50
2023-05-03T23:15:29.428Z,41.20
2023-05-03T23:18:56.397Z,51.00
2023-05-03T23:22:23.478Z,44.40
2023-05-03T23:25:50.615Z,44.70
2023-05-03T23:29:18.097Z,41.70
2023-05-03T23:32:46.536Z,38.00
2023-05-03T23:36:14.251Z,36.20
2023-05-03T23:39:45.823Z,38.70
2023-05-03T23:43:12.652Z,36.60
2023-05-03T23:46:39.896Z,30.50
2023-05-03T23:50:08.810Z,33.50
2023-05-03T23:53:35.867Z,37.70
2023-05-03T23:57:02.829Z,34.20
